sensor_id;sensor_type;location;lat;lon;timestamp;temperature;humidity
71523;HTU21D;59343;51.102;5.884;2023-08-01T00:08:29;19.33;90.79
71523;HTU21D;59343;51.102;5.884;2023-08-01T00:12:09;19.31;90.88
71523;HTU21D;59343;51.102;5.884;2023-08-01T00:15:53;19.33;90.79
71523;HTU21D;59343;51.102;5.884;2023-08-01T00:19:24;19.29;90.82
71523;HTU21D;59343;51.102;5.884;2023-08-01T00:22:20;19.27;91.01
71523;HTU21D;59343;51.102;5.884;2023-08-01T00:29:34;19.22;90.57
71523;HTU21D;59343;51.102;5.884;2023-08-01T00:45:34;19.13;90.44
71523;HTU21D;59343;51.102;5.884;2023-08-01T00:53:10;19.14;90.30
71523;HTU21D;59343;51.102;5.884;2023-08-01T00:56:12;19.13;90.21
71523;HTU21D;59343;51.102;5.884;2023-08-01T00:59:39;19.12;90.13
71523;HTU21D;59343;51.102;5.884;2023-08-01T01:24:03;18.88;88.92
71523;HTU21D;59343;51.102;5.884;2023-08-01T01:31:07;18.79;88.71
71523;HTU21D;59343;51.102;5.884;2023-08-01T01:43:28;18.68;88.60
71523;HTU21D;59343;51.102;5.884;2023-08-01T01:47:25;18.68;88.44
71523;HTU21D;59343;51.102;5.884;2023-08-01T01:50:49;18.65;88.04
71523;HTU21D;59343;51.102;5.884;2023-08-01T01:54:24;18.58;88.09
71523;HTU21D;59343;51.102;5.884;2023-08-01T01:57:07;18.57;88.06
71523;HTU21D;59343;51.102;5.884;2023-08-01T02:00:09;18.54;87.86
71523;HTU21D;59343;51.102;5.884;2023-08-01T02:02:58;18.52;87.79
71523;HTU21D;59343;51.102;5.884;2023-08-01T02:05:34;18.49;87.77
71523;HTU21D;59343;51.102;5.884;2023-08-01T02:08:09;18.46;87.79
71523;HTU21D;59343;51.102;5.884;2023-08-01T02:10:53;18.40;87.52
71523;HTU21D;59343;51.102;5.884;2023-08-01T02:13:27;18.38;87.64
71523;HTU21D;59343;51.102;5.884;2023-08-01T02:15:57;18.34;87.68
71523;HTU21D;59343;51.102;5.884;2023-08-01T02:18:33;18.36;87.64
71523;HTU21D;59343;51.102;5.884;2023-08-01T02:21:02;18.33;87.73
71523;HTU21D;59343;51.102;5.884;2023-08-01T02:23:34;18.29;87.72
71523;HTU21D;59343;51.102;5.884;2023-08-01T02:26:14;18.28;87.68
71523;HTU21D;59343;51.102;5.884;2023-08-01T02:28:58;18.22;87.57
71523;HTU21D;59343;51.102;5.884;2023-08-01T02:31:27;18.20;87.67
71523;HTU21D;59343;51.102;5.884;2023-08-01T02:33:57;18.18;87.54
71523;HTU21D;59343;51.102;5.884;2023-08-01T02:36:37;18.15;87.27
71523;HTU21D;59343;51.102;5.884;2023-08-01T02:39:11;18.12;86.95
71523;HTU21D;59343;51.102;5.884;2023-08-01T02:41:44;18.09;86.61
71523;HTU21D;59343;51.102;5.884;2023-08-01T02:44:13;18.05;86.64
71523;HTU21D;59343;51.102;5.884;2023-08-01T02:46:42;18.00;86.51
71523;HTU21D;59343;51.102;5.884;2023-08-01T02:49:08;17.97;86.54
71523;HTU21D;59343;51.102;5.884;2023-08-01T02:51:34;17.95;86.44
71523;HTU21D;59343;51.102;5.884;2023-08-01T02:54:03;17.93;86.41
71523;HTU21D;59343;51.102;5.884;2023-08-01T02:56:30;17.89;86.37
71523;HTU21D;59343;51.102;5.884;2023-08-01T02:58:56;17.87;86.47
71523;HTU21D;59343;51.102;5.884;2023-08-01T03:01:31;17.88;86.58
71523;HTU21D;59343;51.102;5.884;2023-08-01T03:04:05;17.91;86.38
71523;HTU21D;59343;51.102;5.884;2023-08-01T03:06:33;17.90;86.29
71523;HTU21D;59343;51.102;5.884;2023-08-01T03:09:02;17.88;86.25
71523;HTU21D;59343;51.102;5.884;2023-08-01T03:11:28;17.88;86.26
71523;HTU21D;59343;51.102;5.884;2023-08-01T03:14:02;17.90;86.29
71523;HTU21D;59343;51.102;5.884;2023-08-01T03:16:35;17.94;86.02
71523;HTU21D;59343;51.102;5.884;2023-08-01T03:19:01;17.91;86.16
71523;HTU21D;59343;51.102;5.884;2023-08-01T03:21:32;17.90;86.15
71523;HTU21D;59343;51.102;5.884;2023-08-01T03:24:01;17.88;86.30
71523;HTU21D;59343;51.102;5.884;2023-08-01T03:26:36;17.85;86.32
71523;HTU21D;59343;51.102;5.884;2023-08-01T03:29:05;17.80;86.39
71523;HTU21D;59343;51.102;5.884;2023-08-01T03:31:33;17.79;86.42
71523;HTU21D;59343;51.102;5.884;2023-08-01T03:33:59;17.78;86.59
71523;HTU21D;59343;51.102;5.884;2023-08-01T03:36:25;17.77;86.74
71523;HTU21D;59343;51.102;5.884;2023-08-01T03:38:52;17.78;86.74
71523;HTU21D;59343;51.102;5.884;2023-08-01T03:41:18;17.77;86.77
71523;HTU21D;59343;51.102;5.884;2023-08-01T03:43:48;17.77;86.78
71523;HTU21D;59343;51.102;5.884;2023-08-01T03:46:14;17.78;86.77
71523;HTU21D;59343;51.102;5.884;2023-08-01T03:48:46;17.81;86.59
71523;HTU21D;59343;51.102;5.884;2023-08-01T03:51:21;17.78;86.42
71523;HTU21D;59343;51.102;5.884;2023-08-01T03:53:56;17.76;86.45
71523;HTU21D;59343;51.102;5.884;2023-08-01T03:56:24;17.74;86.57
71523;HTU21D;59343;51.102;5.884;2023-08-01T03:58:50;17.74;86.65
71523;HTU21D;59343;51.102;5.884;2023-08-01T04:01:16;17.73;86.61
71523;HTU21D;59343;51.102;5.884;2023-08-01T04:03:48;17.68;86.54
71523;HTU21D;59343;51.102;5.884;2023-08-01T04:06:16;17.66;86.71
71523;HTU21D;59343;51.102;5.884;2023-08-01T04:08:52;17.65;86.53
71523;HTU21D;59343;51.102;5.884;2023-08-01T04:11:49;17.65;86.48
71523;HTU21D;59343;51.102;5.884;2023-08-01T04:14:15;17.63;86.53
71523;HTU21D;59343;51.102;5.884;2023-08-01T04:16:46;17.65;86.59
71523;HTU21D;59343;51.102;5.884;2023-08-01T04:19:20;17.65;86.45
71523;HTU21D;59343;51.102;5.884;2023-08-01T04:21:46;17.66;86.28
71523;HTU21D;59343;51.102;5.884;2023-08-01T04:24:32;17.64;86.23
71523;HTU21D;59343;51.102;5.884;2023-08-01T04:27:31;17.63;86.12
71523;HTU21D;59343;51.102;5.884;2023-08-01T04:30:02;17.63;86.06
71523;HTU21D;59343;51.102;5.884;2023-08-01T04:32:41;17.61;86.06
71523;HTU21D;59343;51.102;5.884;2023-08-01T04:35:46;17.61;85.97
71523;HTU21D;59343;51.102;5.884;2023-08-01T04:38:15;17.60;85.96
71523;HTU21D;59343;51.102;5.884;2023-08-01T04:41:21;17.63;85.83
71523;HTU21D;59343;51.102;5.884;2023-08-01T04:44:24;17.62;85.87
71523;HTU21D;59343;51.102;5.884;2023-08-01T04:47:03;17.61;86.04
71523;HTU21D;59343;51.102;5.884;2023-08-01T04:50:45;17.63;86.06
71523;HTU21D;59343;51.102;5.884;2023-08-01T04:56:20;17.76;85.86
71523;HTU21D;59343;51.102;5.884;2023-08-01T04:58:49;17.77;85.67
71523;HTU21D;59343;51.102;5.884;2023-08-01T05:01:17;17.79;85.64
71523;HTU21D;59343;51.102;5.884;2023-08-01T05:03:54;17.78;85.54
71523;HTU21D;59343;51.102;5.884;2023-08-01T05:07:11;17.76;85.71
71523;HTU21D;59343;51.102;5.884;2023-08-01T05:09:39;17.77;85.73
71523;HTU21D;59343;51.102;5.884;2023-08-01T05:12:21;17.78;85.79
71523;HTU21D;59343;51.102;5.884;2023-08-01T05:14:53;17.77;85.69
71523;HTU21D;59343;51.102;5.884;2023-08-01T05:17:24;17.80;85.61
71523;HTU21D;59343;51.102;5.884;2023-08-01T05:19:58;17.81;85.65
71523;HTU21D;59343;51.102;5.884;2023-08-01T05:22:37;17.79;85.74
71523;HTU21D;59343;51.102;5.884;2023-08-01T05:25:10;17.83;85.74
71523;HTU21D;59343;51.102;5.884;2023-08-01T05:27:39;17.85;85.48
71523;HTU21D;59343;51.102;5.884;2023-08-01T05:30:17;17.88;85.47
71523;HTU21D;59343;51.102;5.884;2023-08-01T05:32:46;17.90;85.25
71523;HTU21D;59343;51.102;5.884;2023-08-01T05:35:18;17.90;85.35
71523;HTU21D;59343;51.102;5.884;2023-08-01T05:38:07;17.90;85.33
71523;HTU21D;59343;51.102;5.884;2023-08-01T05:40:53;17.93;85.27
71523;HTU21D;59343;51.102;5.884;2023-08-01T05:43:23;17.91;85.24
71523;HTU21D;59343;51.102;5.884;2023-08-01T05:46:17;17.90;85.19
71523;HTU21D;59343;51.102;5.884;2023-08-01T05:49:37;17.92;85.18
71523;HTU21D;59343;51.102;5.884;2023-08-01T05:52:09;17.93;85.05
71523;HTU21D;59343;51.102;5.884;2023-08-01T05:55:03;17.98;84.68
71523;HTU21D;59343;51.102;5.884;2023-08-01T05:58:28;18.03;84.35
71523;HTU21D;59343;51.102;5.884;2023-08-01T06:01:25;18.35;85.41
71523;HTU21D;59343;51.102;5.884;2023-08-01T06:03:53;19.87;84.53
71523;HTU21D;59343;51.102;5.884;2023-08-01T06:09:57;20.09;75.08
71523;HTU21D;59343;51.102;5.884;2023-08-01T06:13:01;20.56;74.23
71523;HTU21D;59343;51.102;5.884;2023-08-01T06:15:30;20.51;73.61
71523;HTU21D;59343;51.102;5.884;2023-08-01T06:17:59;20.31;74.16
71523;HTU21D;59343;51.102;5.884;2023-08-01T06:20:45;20.05;74.98
71523;HTU21D;59343;51.102;5.884;2023-08-01T06:23:23;19.80;75.81
71523;HTU21D;59343;51.102;5.884;2023-08-01T06:25:48;19.58;76.47
71523;HTU21D;59343;51.102;5.884;2023-08-01T06:28:22;19.39;77.16
71523;HTU21D;59343;51.102;5.884;2023-08-01T06:30:53;19.26;77.93
71523;HTU21D;59343;51.102;5.884;2023-08-01T06:33:20;19.25;77.83
71523;HTU21D;59343;51.102;5.884;2023-08-01T06:35:49;19.23;77.78
71523;HTU21D;59343;51.102;5.884;2023-08-01T06:38:18;19.13;78.11
71523;HTU21D;59343;51.102;5.884;2023-08-01T06:40:53;19.11;78.67
71523;HTU21D;59343;51.102;5.884;2023-08-01T06:43:30;19.11;78.37
71523;HTU21D;59343;51.102;5.884;2023-08-01T06:45:56;19.08;78.61
71523;HTU21D;59343;51.102;5.884;2023-08-01T06:48:22;19.16;78.70
71523;HTU21D;59343;51.102;5.884;2023-08-01T06:50:48;19.22;78.43
71523;HTU21D;59343;51.102;5.884;2023-08-01T06:53:14;19.25;78.19
71523;HTU21D;59343;51.102;5.884;2023-08-01T06:55:40;19.27;77.76
71523;HTU21D;59343;51.102;5.884;2023-08-01T06:58:06;19.29;77.67
71523;HTU21D;59343;51.102;5.884;2023-08-01T07:00:35;19.29;77.43
71523;HTU21D;59343;51.102;5.884;2023-08-01T07:03:04;19.32;77.22
71523;HTU21D;59343;51.102;5.884;2023-08-01T07:05:30;19.38;77.31
71523;HTU21D;59343;51.102;5.884;2023-08-01T07:07:58;19.40;77.05
71523;HTU21D;59343;51.102;5.884;2023-08-01T07:10:24;19.42;76.94
71523;HTU21D;59343;51.102;5.884;2023-08-01T07:12:59;19.52;77.07
71523;HTU21D;59343;51.102;5.884;2023-08-01T07:15:25;19.59;76.71
71523;HTU21D;59343;51.102;5.884;2023-08-01T07:17:51;19.57;76.06
71523;HTU21D;59343;51.102;5.884;2023-08-01T07:20:17;19.50;76.27
71523;HTU21D;59343;51.102;5.884;2023-08-01T07:22:44;19.42;76.41
71523;HTU21D;59343;51.102;5.884;2023-08-01T07:25:14;19.29;76.40
71523;HTU21D;59343;51.102;5.884;2023-08-01T07:27:42;19.20;76.97
71523;HTU21D;59343;51.102;5.884;2023-08-01T07:30:08;19.15;77.24
71523;HTU21D;59343;51.102;5.884;2023-08-01T07:32:36;19.10;77.31
71523;HTU21D;59343;51.102;5.884;2023-08-01T07:35:07;19.08;77.53
71523;HTU21D;59343;51.102;5.884;2023-08-01T07:37:33;19.10;77.70
71523;HTU21D;59343;51.102;5.884;2023-08-01T07:39:59;19.17;77.85
71523;HTU21D;59343;51.102;5.884;2023-08-01T07:42:25;19.24;77.98
71523;HTU21D;59343;51.102;5.884;2023-08-01T07:44:51;19.35;76.79
71523;HTU21D;59343;51.102;5.884;2023-08-01T07:47:17;19.39;76.76
71523;HTU21D;59343;51.102;5.884;2023-08-01T07:49:43;19.52;76.72
71523;HTU21D;59343;51.102;5.884;2023-08-01T07:52:10;19.55;76.34
71523;HTU21D;59343;51.102;5.884;2023-08-01T07:54:39;19.58;76.35
71523;HTU21D;59343;51.102;5.884;2023-08-01T07:57:34;19.52;76.08
71523;HTU21D;59343;51.102;5.884;2023-08-01T08:00:08;19.54;76.05
71523;HTU21D;59343;51.102;5.884;2023-08-01T08:02:42;19.59;75.89
71523;HTU21D;59343;51.102;5.884;2023-08-01T08:05:11;19.63;75.92
71523;HTU21D;59343;51.102;5.884;2023-08-01T08:07:48;19.62;75.86
71523;HTU21D;59343;51.102;5.884;2023-08-01T08:10:14;19.61;75.96
71523;HTU21D;59343;51.102;5.884;2023-08-01T08:12:40;19.55;76.04
71523;HTU21D;59343;51.102;5.884;2023-08-01T08:15:07;19.55;76.15
71523;HTU21D;59343;51.102;5.884;2023-08-01T08:17:32;19.60;76.25
71523;HTU21D;59343;51.102;5.884;2023-08-01T08:19:58;19.62;75.59
71523;HTU21D;59343;51.102;5.884;2023-08-01T08:22:24;19.63;75.31
71523;HTU21D;59343;51.102;5.884;2023-08-01T08:24:50;19.65;75.00
71523;HTU21D;59343;51.102;5.884;2023-08-01T08:27:16;19.73;75.18
71523;HTU21D;59343;51.102;5.884;2023-08-01T08:29:42;19.91;74.58
71523;HTU21D;59343;51.102;5.884;2023-08-01T08:32:08;20.27;73.12
71523;HTU21D;59343;51.102;5.884;2023-08-01T08:34:42;20.44;72.11
71523;HTU21D;59343;51.102;5.884;2023-08-01T08:37:08;20.47;71.22
71523;HTU21D;59343;51.102;5.884;2023-08-01T08:39:34;20.39;71.44
71523;HTU21D;59343;51.102;5.884;2023-08-01T08:42:00;20.34;72.07
71523;HTU21D;59343;51.102;5.884;2023-08-01T08:44:26;20.34;72.12
71523;HTU21D;59343;51.102;5.884;2023-08-01T08:47:02;20.41;72.54
71523;HTU21D;59343;51.102;5.884;2023-08-01T08:49:34;20.51;72.77
71523;HTU21D;59343;51.102;5.884;2023-08-01T08:52:04;20.59;72.19
71523;HTU21D;59343;51.102;5.884;2023-08-01T08:54:35;20.61;72.19
71523;HTU21D;59343;51.102;5.884;2023-08-01T08:57:05;20.68;72.43
71523;HTU21D;59343;51.102;5.884;2023-08-01T08:59:33;20.73;72.10
71523;HTU21D;59343;51.102;5.884;2023-08-01T09:02:02;20.81;71.96
71523;HTU21D;59343;51.102;5.884;2023-08-01T09:04:32;20.86;71.93
71523;HTU21D;59343;51.102;5.884;2023-08-01T09:07:02;20.89;71.43
71523;HTU21D;59343;51.102;5.884;2023-08-01T09:09:55;20.83;71.38
71523;HTU21D;59343;51.102;5.884;2023-08-01T09:12:21;20.77;70.86
71523;HTU21D;59343;51.102;5.884;2023-08-01T09:14:50;20.71;70.04
71523;HTU21D;59343;51.102;5.884;2023-08-01T09:18:01;20.61;69.87
71523;HTU21D;59343;51.102;5.884;2023-08-01T09:21:30;20.75;69.68
71523;HTU21D;59343;51.102;5.884;2023-08-01T09:24:29;20.87;69.23
71523;HTU21D;59343;51.102;5.884;2023-08-01T09:27:20;20.90;68.95
71523;HTU21D;59343;51.102;5.884;2023-08-01T09:30:18;20.98;68.40
71523;HTU21D;59343;51.102;5.884;2023-08-01T09:38:20;21.05;67.62
71523;HTU21D;59343;51.102;5.884;2023-08-01T09:47:53;20.88;67.69
71523;HTU21D;59343;51.102;5.884;2023-08-01T09:50:37;21.04;67.75
71523;HTU21D;59343;51.102;5.884;2023-08-01T09:53:15;21.17;67.76
71523;HTU21D;59343;51.102;5.884;2023-08-01T09:55:49;21.31;66.66
71523;HTU21D;59343;51.102;5.884;2023-08-01T09:58:33;21.37;66.47
71523;HTU21D;59343;51.102;5.884;2023-08-01T10:01:04;21.48;66.35
71523;HTU21D;59343;51.102;5.884;2023-08-01T10:04:02;21.65;66.00
71523;HTU21D;59343;51.102;5.884;2023-08-01T10:07:15;21.69;64.45
71523;HTU21D;59343;51.102;5.884;2023-08-01T10:09:49;21.68;64.11
71523;HTU21D;59343;51.102;5.884;2023-08-01T10:12:17;21.77;63.87
71523;HTU21D;59343;51.102;5.884;2023-08-01T10:14:44;21.80;63.42
71523;HTU21D;59343;51.102;5.884;2023-08-01T10:17:12;21.84;63.71
71523;HTU21D;59343;51.102;5.884;2023-08-01T10:19:43;22.01;63.52
71523;HTU21D;59343;51.102;5.884;2023-08-01T10:22:11;21.98;62.82
71523;HTU21D;59343;51.102;5.884;2023-08-01T10:24:57;22.01;62.44
71523;HTU21D;59343;51.102;5.884;2023-08-01T10:30:55;22.25;62.19
71523;HTU21D;59343;51.102;5.884;2023-08-01T10:34:16;22.34;61.83
71523;HTU21D;59343;51.102;5.884;2023-08-01T10:36:54;22.44;61.38
71523;HTU21D;59343;51.102;5.884;2023-08-01T10:39:40;22.48;60.33
71523;HTU21D;59343;51.102;5.884;2023-08-01T10:42:05;22.41;60.70
71523;HTU21D;59343;51.102;5.884;2023-08-01T10:44:45;22.51;60.71
71523;HTU21D;59343;51.102;5.884;2023-08-01T10:47:37;22.63;60.60
71523;HTU21D;59343;51.102;5.884;2023-08-01T10:50:14;22.73;59.51
71523;HTU21D;59343;51.102;5.884;2023-08-01T10:52:47;22.69;59.36
71523;HTU21D;59343;51.102;5.884;2023-08-01T10:55:20;22.61;59.47
71523;HTU21D;59343;51.102;5.884;2023-08-01T10:57:49;22.62;59.83
71523;HTU21D;59343;51.102;5.884;2023-08-01T11:00:17;22.71;59.20
71523;HTU21D;59343;51.102;5.884;2023-08-01T11:02:51;22.76;58.51
71523;HTU21D;59343;51.102;5.884;2023-08-01T11:05:17;22.78;58.96
71523;HTU21D;59343;51.102;5.884;2023-08-01T11:07:54;22.91;58.82
71523;HTU21D;59343;51.102;5.884;2023-08-01T11:10:20;22.88;58.49
71523;HTU21D;59343;51.102;5.884;2023-08-01T11:12:49;22.80;58.25
71523;HTU21D;59343;51.102;5.884;2023-08-01T11:15:15;22.71;59.19
71523;HTU21D;59343;51.102;5.884;2023-08-01T11:17:49;22.73;59.35
71523;HTU21D;59343;51.102;5.884;2023-08-01T11:20:16;22.61;60.67
71523;HTU21D;59343;51.102;5.884;2023-08-01T11:23:00;22.36;62.66
71523;HTU21D;59343;51.102;5.884;2023-08-01T11:25:43;22.07;63.24
71523;HTU21D;59343;51.102;5.884;2023-08-01T11:28:14;21.88;64.31
71523;HTU21D;59343;51.102;5.884;2023-08-01T11:30:40;21.89;64.57
71523;HTU21D;59343;51.102;5.884;2023-08-01T11:33:21;21.95;64.59
71523;HTU21D;59343;51.102;5.884;2023-08-01T11:35:55;22.01;64.37
71523;HTU21D;59343;51.102;5.884;2023-08-01T11:38:27;21.89;64.08
71523;HTU21D;59343;51.102;5.884;2023-08-01T11:40:59;21.78;64.73
71523;HTU21D;59343;51.102;5.884;2023-08-01T11:43:26;21.74;64.98
71523;HTU21D;59343;51.102;5.884;2023-08-01T11:45:54;21.78;65.21
71523;HTU21D;59343;51.102;5.884;2023-08-01T11:48:21;21.87;65.24
71523;HTU21D;59343;51.102;5.884;2023-08-01T11:50:49;21.89;65.24
71523;HTU21D;59343;51.102;5.884;2023-08-01T11:53:22;21.90;65.10
71523;HTU21D;59343;51.102;5.884;2023-08-01T11:55:50;21.96;65.28
71523;HTU21D;59343;51.102;5.884;2023-08-01T11:58:29;22.14;65.28
71523;HTU21D;59343;51.102;5.884;2023-08-01T12:01:07;22.33;64.59
71523;HTU21D;59343;51.102;5.884;2023-08-01T12:03:51;22.49;63.95
71523;HTU21D;59343;51.102;5.884;2023-08-01T12:06:20;22.64;63.11
71523;HTU21D;59343;51.102;5.884;2023-08-01T12:09:12;22.78;62.58
71523;HTU21D;59343;51.102;5.884;2023-08-01T12:11:40;22.83;62.02
71523;HTU21D;59343;51.102;5.884;2023-08-01T12:14:10;22.84;61.72
71523;HTU21D;59343;51.102;5.884;2023-08-01T12:16:44;22.88;61.47
71523;HTU21D;59343;51.102;5.884;2023-08-01T12:19:16;23.03;59.93
71523;HTU21D;59343;51.102;5.884;2023-08-01T12:21:44;23.11;59.44
71523;HTU21D;59343;51.102;5.884;2023-08-01T12:24:10;23.30;59.60
71523;HTU21D;59343;51.102;5.884;2023-08-01T12:26:39;23.49;58.28
71523;HTU21D;59343;51.102;5.884;2023-08-01T12:29:05;23.53;57.63
71523;HTU21D;59343;51.102;5.884;2023-08-01T12:31:33;23.60;57.91
71523;HTU21D;59343;51.102;5.884;2023-08-01T12:34:01;23.71;57.08
71523;HTU21D;59343;51.102;5.884;2023-08-01T12:36:32;23.68;55.68
71523;HTU21D;59343;51.102;5.884;2023-08-01T12:39:01;23.52;55.15
71523;HTU21D;59343;51.102;5.884;2023-08-01T12:41:28;23.35;55.71
71523;HTU21D;59343;51.102;5.884;2023-08-01T12:43:56;23.30;56.01
71523;HTU21D;59343;51.102;5.884;2023-08-01T12:46:33;23.25;55.92
71523;HTU21D;59343;51.102;5.884;2023-08-01T12:49:00;23.28;56.47
71523;HTU21D;59343;51.102;5.884;2023-08-01T12:51:29;23.32;56.17
71523;HTU21D;59343;51.102;5.884;2023-08-01T12:53:57;23.35;56.16
71523;HTU21D;59343;51.102;5.884;2023-08-01T12:56:23;23.30;56.08
71523;HTU21D;59343;51.102;5.884;2023-08-01T12:58:51;23.25;56.55
71523;HTU21D;59343;51.102;5.884;2023-08-01T13:01:17;23.15;56.30
71523;HTU21D;59343;51.102;5.884;2023-08-01T13:03:43;23.09;56.39
71523;HTU21D;59343;51.102;5.884;2023-08-01T13:06:11;23.10;56.63
71523;HTU21D;59343;51.102;5.884;2023-08-01T13:08:38;23.11;56.66
71523;HTU21D;59343;51.102;5.884;2023-08-01T13:11:10;23.14;56.56
71523;HTU21D;59343;51.102;5.884;2023-08-01T13:13:37;23.10;56.07
71523;HTU21D;59343;51.102;5.884;2023-08-01T13:16:53;23.02;56.50
71523;HTU21D;59343;51.102;5.884;2023-08-01T13:20:00;23.07;56.57
71523;HTU21D;59343;51.102;5.884;2023-08-01T13:23:10;23.12;56.41
71523;HTU21D;59343;51.102;5.884;2023-08-01T13:27:03;23.17;56.47
71523;HTU21D;59343;51.102;5.884;2023-08-01T13:34:53;23.70;56.02
71523;HTU21D;59343;51.102;5.884;2023-08-01T13:41:34;23.64;55.52
71523;HTU21D;59343;51.102;5.884;2023-08-01T13:58:08;23.37;57.10
71523;HTU21D;59343;51.102;5.884;2023-08-01T14:00:38;23.31;57.00
71523;HTU21D;59343;51.102;5.884;2023-08-01T14:03:32;23.26;56.70
71523;HTU21D;59343;51.102;5.884;2023-08-01T14:06:40;23.37;56.73
71523;HTU21D;59343;51.102;5.884;2023-08-01T14:09:12;23.53;56.42
71523;HTU21D;59343;51.102;5.884;2023-08-01T14:11:41;23.61;56.19
71523;HTU21D;59343;51.102;5.884;2023-08-01T14:18:02;23.50;56.03
71523;HTU21D;59343;51.102;5.884;2023-08-01T14:20:28;23.35;55.21
71523;HTU21D;59343;51.102;5.884;2023-08-01T14:22:54;23.15;54.93
71523;HTU21D;59343;51.102;5.884;2023-08-01T14:25:20;23.01;55.63
71523;HTU21D;59343;51.102;5.884;2023-08-01T14:27:49;22.92;56.37
71523;HTU21D;59343;51.102;5.884;2023-08-01T14:30:17;22.87;56.63
71523;HTU21D;59343;51.102;5.884;2023-08-01T14:32:46;22.95;56.98
71523;HTU21D;59343;51.102;5.884;2023-08-01T14:35:16;23.18;57.08
71523;HTU21D;59343;51.102;5.884;2023-08-01T14:37:44;23.44;56.39
71523;HTU21D;59343;51.102;5.884;2023-08-01T14:40:14;23.57;55.90
71523;HTU21D;59343;51.102;5.884;2023-08-01T14:42:43;23.72;55.26
71523;HTU21D;59343;51.102;5.884;2023-08-01T14:45:09;23.81;54.21
71523;HTU21D;59343;51.102;5.884;2023-08-01T14:47:35;23.77;53.03
71523;HTU21D;59343;51.102;5.884;2023-08-01T14:50:03;23.69;53.12
71523;HTU21D;59343;51.102;5.884;2023-08-01T14:52:40;23.62;52.48
71523;HTU21D;59343;51.102;5.884;2023-08-01T14:55:19;23.43;52.33
71523;HTU21D;59343;51.102;5.884;2023-08-01T14:57:48;23.21;52.35
71523;HTU21D;59343;51.102;5.884;2023-08-01T15:00:18;23.03;52.63
71523;HTU21D;59343;51.102;5.884;2023-08-01T15:02:45;22.92;53.17
71523;HTU21D;59343;51.102;5.884;2023-08-01T15:05:12;22.73;53.48
71523;HTU21D;59343;51.102;5.884;2023-08-01T15:07:38;22.57;54.08
71523;HTU21D;59343;51.102;5.884;2023-08-01T15:10:04;22.48;54.36
71523;HTU21D;59343;51.102;5.884;2023-08-01T15:12:32;22.41;54.49
71523;HTU21D;59343;51.102;5.884;2023-08-01T15:14:58;22.39;54.61
71523;HTU21D;59343;51.102;5.884;2023-08-01T15:17:27;22.41;54.76
71523;HTU21D;59343;51.102;5.884;2023-08-01T15:19:53;22.55;54.83
71523;HTU21D;59343;51.102;5.884;2023-08-01T15:22:21;22.78;54.60
71523;HTU21D;59343;51.102;5.884;2023-08-01T15:24:47;23.01;54.08
71523;HTU21D;59343;51.102;5.884;2023-08-01T15:27:13;23.10;53.43
71523;HTU21D;59343;51.102;5.884;2023-08-01T15:29:40;23.07;53.01
71523;HTU21D;59343;51.102;5.884;2023-08-01T15:32:06;23.02;53.09
71523;HTU21D;59343;51.102;5.884;2023-08-01T15:34:32;22.97;53.14
71523;HTU21D;59343;51.102;5.884;2023-08-01T15:36:58;22.92;53.10
71523;HTU21D;59343;51.102;5.884;2023-08-01T15:39:24;22.90;53.23
71523;HTU21D;59343;51.102;5.884;2023-08-01T15:41:50;22.86;53.58
71523;HTU21D;59343;51.102;5.884;2023-08-01T15:44:17;22.94;53.51
71523;HTU21D;59343;51.102;5.884;2023-08-01T15:46:43;22.91;53.56
71523;HTU21D;59343;51.102;5.884;2023-08-01T15:49:10;22.86;53.65
71523;HTU21D;59343;51.102;5.884;2023-08-01T15:51:39;22.83;54.10
71523;HTU21D;59343;51.102;5.884;2023-08-01T15:54:05;22.92;54.35
71523;HTU21D;59343;51.102;5.884;2023-08-01T15:56:31;22.95;54.42
71523;HTU21D;59343;51.102;5.884;2023-08-01T15:58:57;23.01;54.24
71523;HTU21D;59343;51.102;5.884;2023-08-01T16:01:24;22.98;54.17
71523;HTU21D;59343;51.102;5.884;2023-08-01T16:03:50;22.90;54.30
71523;HTU21D;59343;51.102;5.884;2023-08-01T16:06:16;22.81;54.36
71523;HTU21D;59343;51.102;5.884;2023-08-01T16:08:42;22.71;54.83
71523;HTU21D;59343;51.102;5.884;2023-08-01T16:11:08;22.61;54.36
71523;HTU21D;59343;51.102;5.884;2023-08-01T16:13:39;22.44;54.52
71523;HTU21D;59343;51.102;5.884;2023-08-01T16:16:07;22.34;54.73
71523;HTU21D;59343;51.102;5.884;2023-08-01T16:18:33;22.19;55.06
71523;HTU21D;59343;51.102;5.884;2023-08-01T16:20:59;22.08;55.14
71523;HTU21D;59343;51.102;5.884;2023-08-01T16:23:25;21.90;55.42
71523;HTU21D;59343;51.102;5.884;2023-08-01T16:25:52;21.75;56.07
71523;HTU21D;59343;51.102;5.884;2023-08-01T16:28:18;21.64;56.42
71523;HTU21D;59343;51.102;5.884;2023-08-01T16:30:44;21.55;56.26
71523;HTU21D;59343;51.102;5.884;2023-08-01T16:33:11;21.51;56.23
71523;HTU21D;59343;51.102;5.884;2023-08-01T16:35:41;21.46;56.06
71523;HTU21D;59343;51.102;5.884;2023-08-01T16:38:07;21.44;55.90
71523;HTU21D;59343;51.102;5.884;2023-08-01T16:40:42;21.43;55.90
71523;HTU21D;59343;51.102;5.884;2023-08-01T16:43:11;21.45;55.95
71523;HTU21D;59343;51.102;5.884;2023-08-01T16:45:38;21.44;55.69
71523;HTU21D;59343;51.102;5.884;2023-08-01T16:48:07;21.44;55.87
71523;HTU21D;59343;51.102;5.884;2023-08-01T16:50:35;21.47;55.87
71523;HTU21D;59343;51.102;5.884;2023-08-01T16:53:15;21.51;55.96
71523;HTU21D;59343;51.102;5.884;2023-08-01T16:55:58;21.52;55.75
71523;HTU21D;59343;51.102;5.884;2023-08-01T16:58:49;21.52;55.75
71523;HTU21D;59343;51.102;5.884;2023-08-01T17:01:32;21.58;55.90
71523;HTU21D;59343;51.102;5.884;2023-08-01T17:03:58;21.54;55.89
71523;HTU21D;59343;51.102;5.884;2023-08-01T17:06:25;21.57;56.12
71523;HTU21D;59343;51.102;5.884;2023-08-01T17:09:09;21.57;56.40
71523;HTU21D;59343;51.102;5.884;2023-08-01T17:12:19;21.57;56.81
71523;HTU21D;59343;51.102;5.884;2023-08-01T17:14:48;21.54;56.93
71523;HTU21D;59343;51.102;5.884;2023-08-01T17:17:14;21.52;57.44
71523;HTU21D;59343;51.102;5.884;2023-08-01T17:19:40;21.52;57.83
71523;HTU21D;59343;51.102;5.884;2023-08-01T17:22:07;21.52;58.14
71523;HTU21D;59343;51.102;5.884;2023-08-01T17:24:42;21.48;58.36
71523;HTU21D;59343;51.102;5.884;2023-08-01T17:27:08;21.44;58.49
71523;HTU21D;59343;51.102;5.884;2023-08-01T17:29:34;21.42;58.79
71523;HTU21D;59343;51.102;5.884;2023-08-01T17:32:01;21.37;58.94
71523;HTU21D;59343;51.102;5.884;2023-08-01T17:34:27;21.36;59.18
71523;HTU21D;59343;51.102;5.884;2023-08-01T17:36:53;21.35;59.46
71523;HTU21D;59343;51.102;5.884;2023-08-01T17:39:21;21.35;59.66
71523;HTU21D;59343;51.102;5.884;2023-08-01T17:41:47;21.34;59.64
71523;HTU21D;59343;51.102;5.884;2023-08-01T17:44:15;21.33;59.83
71523;HTU21D;59343;51.102;5.884;2023-08-01T21:49:51;19.30;74.87
71523;HTU21D;59343;51.102;5.884;2023-08-01T22:01:25;19.21;75.28
71523;HTU21D;59343;51.102;5.884;2023-08-01T22:04:00;19.18;74.90
71523;HTU21D;59343;51.102;5.884;2023-08-01T22:06:29;19.20;74.50
71523;HTU21D;59343;51.102;5.884;2023-08-01T22:09:07;19.20;74.25
71523;HTU21D;59343;51.102;5.884;2023-08-01T22:11:53;19.20;73.79